Time;durP1;ratioP1;P1;durP2;ratioP2;P2;SDS_P1;SDS_P2;PMS_P1;PMS_P2;Temp;Humidity;BMP_temperature;BMP_pressure;BME280_temperature;BME280_humidity;BME280_pressure;Samples;Min_cycle;Max_cycle;Signal;HPM_P1;HPM_P2
2022/07/27 00:00:54;;;;;;;;;;;;;;;24.21;50.54;98901.59;4422187;32;32881;-85
2022/07/27 00:03:22;;;;;;;;;;;;;;;24.44;49.92;98897.00;4436345;32;34036;-85
2022/07/27 00:05:49;;;;;;;;;;;;;;;23.97;51.02;98903.56;4422138;32;35139;-87
2022/07/27 00:08:19;;;;;;;;;;;;;;;24.64;49.15;98899.53;4420116;32;34904;-83
2022/07/27 00:10:46;;;;;;;;;;;;;;;24.90;48.36;98902.72;4420823;32;33303;-84
2022/07/27 00:13:14;;;;;;;;;;;;;;;24.23;50.05;98909.44;4420642;32;33563;-85
2022/07/27 00:15:41;;;;;;;;;;;;;;;25.00;48.03;98911.91;4426793;32;33892;-84
2022/07/27 00:18:08;;;;;;;;;;;;;;;24.80;48.26;98909.38;4436039;32;34120;-85
2022/07/27 00:20:36;;;;;;;;;;;;;;;25.63;46.10;98911.34;4422082;32;32390;-86
2022/07/27 00:23:03;;;;;;;;;;;;;;;24.90;47.75;98914.16;4421885;32;34159;-86
2022/07/27 00:25:31;;;;;;;;;;;;;;;24.20;49.53;98910.44;4435758;32;35135;-85
2022/07/27 00:27:58;;;;;;;;;;;;;;;24.58;48.66;98904.28;4421782;32;34533;-88
2022/07/27 00:30:25;;;;;;;;;;;;;;;23.72;50.61;98909.13;4414950;32;33577;-85
2022/07/27 00:32:53;;;;;;;;;;;;;;;24.19;49.43;98908.72;4406578;32;33998;-84
2022/07/27 00:35:20;;;;;;;;;;;;;;;24.15;49.30;98907.16;4420566;32;34453;-85
2022/07/27 00:37:47;;;;;;;;;;;;;;;25.15;46.90;98899.69;4420207;32;35204;-87
2022/07/27 00:40:14;;;;;;;;;;;;;;;25.10;46.67;98905.22;4420383;32;33635;-85
2022/07/27 00:42:42;;;;;;;;;;;;;;;25.52;45.48;98898.66;4420088;32;35107;-86
2022/07/27 00:45:09;;;;;;;;;;;;;;;25.22;46.31;98901.09;4408913;32;34435;-85
2022/07/27 00:47:36;;;;;;;;;;;;;;;25.29;45.96;98901.66;4435041;32;34217;-85
2022/07/27 00:50:04;;;;;;;;;;;;;;;25.71;44.91;98904.69;4435633;32;33698;-84
2022/07/27 00:52:31;;;;;;;;;;;;;;;25.36;45.79;98905.69;4435611;32;33952;-84
2022/07/27 00:54:58;;;;;;;;;;;;;;;25.71;44.88;98910.00;4435166;32;35222;-85
2022/07/27 00:57:26;;;;;;;;;;;;;;;26.00;44.14;98897.00;4435572;32;34563;-87
2022/07/27 00:59:54;;;;;;;;;;;;;;;26.30;43.24;98894.44;4435408;32;34325;-87
2022/07/27 01:02:21;;;;;;;;;;;;;;;25.62;44.37;98899.88;4435558;32;34254;-86
2022/07/27 01:04:50;;;;;;;;;;;;;;;24.78;46.26;98898.03;4421960;32;34448;-84
2022/07/27 01:07:23;;;;;;;;;;;;;;;24.85;45.92;98902.94;4420054;32;34044;-86
2022/07/27 01:09:56;;;;;;;;;;;;;;;25.07;45.22;98901.84;4406121;32;33188;-85
2022/07/27 01:12:25;;;;;;;;;;;;;;;24.72;45.49;98904.47;4419752;32;34316;-86
2022/07/27 01:14:52;;;;;;;;;;;;;;;25.33;44.41;98905.84;4406136;32;33894;-86
2022/07/27 01:17:20;;;;;;;;;;;;;;;25.37;44.26;98907.41;4419751;32;34271;-85
2022/07/27 01:19:47;;;;;;;;;;;;;;;25.59;43.62;98908.00;4434402;32;33557;-84
2022/07/27 01:22:14;;;;;;;;;;;;;;;25.59;43.60;98909.81;4437386;32;35167;-84
2022/07/27 01:24:42;;;;;;;;;;;;;;;25.36;44.04;98909.22;4410438;32;33595;-85
2022/07/27 01:27:09;;;;;;;;;;;;;;;24.95;44.69;98909.47;4423264;32;35322;-85
2022/07/27 01:29:36;;;;;;;;;;;;;;;23.92;47.16;98910.87;4437552;32;33217;-86
2022/07/27 01:32:03;;;;;;;;;;;;;;;24.37;46.17;98900.84;4423370;32;34867;-88
2022/07/27 01:34:34;;;;;;;;;;;;;;;25.58;43.43;98908.97;4437316;32;34493;-85
2022/07/27 01:37:02;;;;;;;;;;;;;;;25.18;44.23;98900.41;4428208;32;34591;-86
2022/07/27 01:39:29;;;;;;;;;;;;;;;25.33;43.76;98911.16;4408202;32;34161;-85
2022/07/27 01:41:57;;;;;;;;;;;;;;;25.08;44.57;98908.84;4406399;32;34078;-86
2022/07/27 01:44:24;;;;;;;;;;;;;;;24.62;45.54;98904.03;4393047;32;34006;-85
2022/07/27 01:46:51;;;;;;;;;;;;;;;25.13;44.59;98917.50;4392978;32;33844;-85
2022/07/27 01:49:19;;;;;;;;;;;;;;;25.00;45.08;98901.28;4408468;32;33380;-84
2022/07/27 01:51:46;;;;;;;;;;;;;;;25.48;44.09;98910.37;4408251;32;33630;-84
2022/07/27 01:54:14;;;;;;;;;;;;;;;24.84;45.71;98900.34;4395712;32;33491;-86
2022/07/27 01:56:44;;;;;;;;;;;;;;;24.69;46.37;98901.97;4421460;32;34246;-84
2022/07/27 01:59:11;;;;;;;;;;;;;;;24.46;46.85;98890.69;4407933;32;33516;-85
2022/07/27 02:01:43;;;;;;;;;;;;;;;24.51;46.64;98899.28;4408370;32;34372;-85
2022/07/27 02:04:11;;;;;;;;;;;;;;;24.15;47.49;98901.00;4424267;32;34955;-86
2022/07/27 02:06:38;;;;;;;;;;;;;;;23.86;48.10;98897.91;4423441;32;34106;-86
2022/07/27 02:09:05;;;;;;;;;;;;;;;23.79;48.17;98892.06;4437067;32;33498;-85
2022/07/27 02:14:19;;;;;;;;;;;;;;;24.68;45.92;98898.47;4437023;32;35097;-85
2022/07/27 02:16:47;;;;;;;;;;;;;;;24.67;45.67;98895.91;4436930;32;34606;-84
2022/07/27 02:19:17;;;;;;;;;;;;;;;24.55;46.05;98888.53;4418006;32;34373;-84
2022/07/27 02:21:44;;;;;;;;;;;;;;;24.62;45.67;98898.75;4407981;32;34011;-86
2022/07/27 02:24:12;;;;;;;;;;;;;;;23.69;47.77;98898.69;4407617;32;34555;-86
2022/07/27 02:26:39;;;;;;;;;;;;;;;24.70;45.31;98899.25;4421643;32;35893;-85
2022/07/27 02:29:06;;;;;;;;;;;;;;;24.91;44.67;98896.47;4407779;32;32784;-87
2022/07/27 02:31:34;;;;;;;;;;;;;;;23.89;46.90;98904.84;4420894;32;34244;-85
2022/07/27 02:34:01;;;;;;;;;;;;;;;24.06;46.78;98901.44;4412187;32;32831;-85
2022/07/27 02:36:28;;;;;;;;;;;;;;;24.63;45.23;98900.47;4422754;32;34953;-85
2022/07/27 02:38:56;;;;;;;;;;;;;;;24.31;45.99;98909.09;4436565;32;33532;-87
2022/07/27 02:41:23;;;;;;;;;;;;;;;23.67;47.35;98902.31;4397674;32;32222;-85
2022/07/27 02:43:50;;;;;;;;;;;;;;;24.47;45.45;98903.03;4422769;32;32651;-85
2022/07/27 02:46:18;;;;;;;;;;;;;;;24.76;44.71;98909.53;4436702;32;35318;-86
2022/07/27 02:48:45;;;;;;;;;;;;;;;25.00;43.94;98899.53;4436808;32;33597;-87
2022/07/27 02:51:13;;;;;;;;;;;;;;;24.54;44.84;98894.75;4410945;32;34196;-84
2022/07/27 02:53:41;;;;;;;;;;;;;;;24.39;45.43;98899.00;4421130;32;35437;-85
2022/07/27 02:56:09;;;;;;;;;;;;;;;24.39;45.32;98894.56;4421312;32;34167;-86
2022/07/27 02:58:36;;;;;;;;;;;;;;;24.46;44.87;98889.84;4423289;32;34722;-83
2022/07/27 03:01:04;;;;;;;;;;;;;;;24.23;45.35;98910.28;4436754;32;33787;-85
2022/07/27 03:03:33;;;;;;;;;;;;;;;24.28;45.33;98910.97;4422730;32;33675;-85
2022/07/27 03:06:04;;;;;;;;;;;;;;;24.88;43.79;98910.72;4436741;32;34382;-84
2022/07/27 03:08:33;;;;;;;;;;;;;;;25.03;43.54;98908.25;4415561;32;34392;-86
2022/07/27 03:11:00;;;;;;;;;;;;;;;24.94;43.75;98901.63;4407465;32;34773;-84
2022/07/27 03:13:28;;;;;;;;;;;;;;;24.86;43.83;98903.81;4421361;32;35250;-84
2022/07/27 03:15:55;;;;;;;;;;;;;;;24.94;43.56;98904.28;4421368;32;34264;-84
2022/07/27 03:18:22;;;;;;;;;;;;;;;24.37;44.85;98909.66;4421612;32;33550;-86
2022/07/27 03:20:50;;;;;;;;;;;;;;;24.16;45.43;98903.56;4407409;32;34023;-85
2022/07/27 03:23:17;;;;;;;;;;;;;;;24.28;45.27;98900.38;4427642;32;34057;-84
2022/07/27 03:25:44;;;;;;;;;;;;;;;24.19;45.45;98895.47;4436674;32;34323;-86
2022/07/27 03:28:12;;;;;;;;;;;;;;;23.61;46.78;98906.06;4436584;32;33483;-85
2022/07/27 03:30:39;;;;;;;;;;;;;;;23.76;46.15;98910.72;4422698;32;34960;-84
2022/07/27 03:33:06;;;;;;;;;;;;;;;24.26;45.06;98910.16;4422520;32;34150;-84
2022/07/27 03:35:34;;;;;;;;;;;;;;;25.15;43.04;98919.13;4422480;32;34566;-85
2022/07/27 03:38:01;;;;;;;;;;;;;;;25.28;42.46;98907.91;4415371;32;33735;-85
2022/07/27 03:40:31;;;;;;;;;;;;;;;25.11;42.96;98906.94;4407304;32;34166;-85
2022/07/27 03:42:59;;;;;;;;;;;;;;;25.74;41.32;98914.31;4419753;32;35164;-85
2022/07/27 03:45:26;;;;;;;;;;;;;;;26.17;40.71;98907.53;4407064;32;33415;-86
2022/07/27 03:47:54;;;;;;;;;;;;;;;26.37;40.57;98918.87;4407021;32;34445;-84
2022/07/27 03:50:21;;;;;;;;;;;;;;;26.64;40.17;98916.50;4420883;32;34367;-84
2022/07/27 03:52:49;;;;;;;;;;;;;;;26.96;39.62;98917.28;4421098;32;34290;-84
2022/07/27 03:55:16;;;;;;;;;;;;;;;27.20;39.00;98906.19;4422188;32;34177;-85
2022/07/27 03:57:45;;;;;;;;;;;;;;;27.26;38.92;98911.16;4436260;32;34340;-87
2022/07/27 04:00:13;;;;;;;;;;;;;;;27.37;38.47;98900.72;4422385;32;35182;-85
2022/07/27 04:02:40;;;;;;;;;;;;;;;27.22;38.86;98906.97;4436575;32;35348;-87
2022/07/27 04:05:08;;;;;;;;;;;;;;;27.01;39.20;98904.59;4436222;32;34174;-84
2022/07/27 04:07:35;;;;;;;;;;;;;;;27.61;38.24;98906.34;4436374;32;33829;-85
2022/07/27 04:10:02;;;;;;;;;;;;;;;27.44;38.48;98911.84;4430251;32;33936;-84
2022/07/27 04:12:30;;;;;;;;;;;;;;;27.54;37.89;98913.88;4406843;32;34871;-86
2022/07/27 04:14:57;;;;;;;;;;;;;;;27.71;37.85;98914.62;4420681;32;34141;-83
2022/07/27 04:17:25;;;;;;;;;;;;;;;27.74;37.49;98909.13;4406962;32;35176;-85
2022/07/27 04:20:12;;;;;;;;;;;;;;;27.46;37.77;98915.25;4420610;32;34295;-85
2022/07/27 04:22:41;;;;;;;;;;;;;;;28.04;37.05;98915.25;4406826;32;34439;-82
2022/07/27 04:25:08;;;;;;;;;;;;;;;28.25;36.38;98915.69;4428002;32;35229;-83
2022/07/27 04:27:35;;;;;;;;;;;;;;;28.08;36.75;98915.91;4435852;32;34459;-84
2022/07/27 04:30:03;;;;;;;;;;;;;;;28.37;36.49;98919.41;4435838;32;34117;-82
2022/07/27 04:32:35;;;;;;;;;;;;;;;28.92;34.95;98926.47;4435672;32;34241;-84
2022/07/27 04:35:03;;;;;;;;;;;;;;;28.89;34.40;98924.00;4421673;32;35356;-83
2022/07/27 04:37:31;;;;;;;;;;;;;;;29.14;34.06;98922.41;4436052;32;33945;-84
2022/07/27 04:39:58;;;;;;;;;;;;;;;29.74;33.50;98919.19;4426957;32;34395;-84
2022/07/27 04:42:25;;;;;;;;;;;;;;;29.81;33.62;98915.97;4420360;32;34195;-84
2022/07/27 04:44:53;;;;;;;;;;;;;;;30.51;32.65;98907.41;4420325;32;35065;-85
2022/07/27 04:47:20;;;;;;;;;;;;;;;30.24;32.02;98912.09;4420193;32;34352;-83
2022/07/27 04:49:47;;;;;;;;;;;;;;;29.97;33.05;98918.41;4406244;32;34213;-84
2022/07/27 04:52:15;;;;;;;;;;;;;;;31.04;32.19;98909.75;4420199;32;34169;-83
2022/07/27 04:54:42;;;;;;;;;;;;;;;30.70;32.08;98919.44;4408809;32;34271;-84
2022/07/27 04:57:09;;;;;;;;;;;;;;;31.88;30.82;98929.25;4423424;32;33067;-85
2022/07/27 04:59:36;;;;;;;;;;;;;;;31.98;30.55;98927.53;4423793;32;34784;-83
2022/07/27 05:02:04;;;;;;;;;;;;;;;32.23;30.32;98923.72;4423553;32;34020;-83
2022/07/27 05:04:31;;;;;;;;;;;;;;;32.33;28.96;98924.72;4437388;32;34382;-83
2022/07/27 05:06:58;;;;;;;;;;;;;;;32.44;28.89;98924.72;4423912;32;33648;-83
2022/07/27 05:09:26;;;;;;;;;;;;;;;32.61;28.95;98927.84;4437431;32;34280;-83
2022/07/27 05:11:53;;;;;;;;;;;;;;;32.56;29.52;98924.69;4432235;32;35359;-84
2022/07/27 05:14:20;;;;;;;;;;;;;;;33.12;28.38;98933.44;4408311;32;34388;-82
2022/07/27 05:16:48;;;;;;;;;;;;;;;32.83;28.93;98927.78;4407976;32;34491;-83
2022/07/27 05:19:16;;;;;;;;;;;;;;;33.12;28.74;98935.28;4408164;32;34201;-83
2022/07/27 05:21:43;;;;;;;;;;;;;;;31.33;30.18;98929.00;4422083;32;34187;-84
2022/07/27 05:24:10;;;;;;;;;;;;;;;31.13;30.57;98943.00;4407855;32;34466;-82
2022/07/27 05:26:38;;;;;;;;;;;;;;;31.69;28.99;98943.19;4408859;32;34183;-83
2022/07/27 05:29:05;;;;;;;;;;;;;;;31.40;30.64;98940.94;4422295;32;35062;-84
2022/07/27 05:31:32;;;;;;;;;;;;;;;31.67;30.47;98937.97;4421741;32;33811;-82
2022/07/27 05:34:00;;;;;;;;;;;;;;;32.58;28.33;98938.84;4421850;32;34612;-83
2022/07/27 05:36:27;;;;;;;;;;;;;;;32.17;27.96;98945.72;4421877;32;34599;-83
2022/07/27 05:38:54;;;;;;;;;;;;;;;32.16;28.19;98947.53;4421784;32;34878;-85
2022/07/27 05:41:22;;;;;;;;;;;;;;;31.61;29.29;98942.94;4437602;32;33867;-87
2022/07/27 05:43:50;;;;;;;;;;;;;;;32.11;28.15;98947.03;4437495;32;35265;-86
2022/07/27 05:46:17;;;;;;;;;;;;;;;32.68;27.70;98945.16;4437125;32;33671;-87
2022/07/27 05:48:45;;;;;;;;;;;;;;;32.55;26.67;98944.47;4409112;32;34023;-86
2022/07/27 05:51:12;;;;;;;;;;;;;;;31.92;28.01;98953.00;4422005;32;34264;-83
2022/07/27 05:53:39;;;;;;;;;;;;;;;31.93;28.49;98957.37;4408199;32;34091;-85
2022/07/27 05:56:07;;;;;;;;;;;;;;;30.10;30.74;98965.66;4392901;32;33313;-87
2022/07/27 05:58:34;;;;;;;;;;;;;;;31.32;29.71;98961.25;4406715;32;34778;-86
2022/07/27 06:01:02;;;;;;;;;;;;;;;32.45;28.36;98964.00;4380506;32;33962;-85
2022/07/27 06:03:29;;;;;;;;;;;;;;;31.36;29.75;98968.06;4406425;32;34574;-86
2022/07/27 06:08:43;;;;;;;;;;;;;;;32.89;28.00;98969.41;4394923;32;33936;-87
2022/07/27 06:11:11;;;;;;;;;;;;;;;32.68;26.72;98974.69;4383124;32;33070;-89
2022/07/27 06:13:38;;;;;;;;;;;;;;;32.42;27.77;98974.97;4391270;32;34885;-86
2022/07/27 06:16:15;;;;;;;;;;;;;;;32.15;26.93;98986.03;4391435;32;33748;-88
2022/07/27 06:18:42;;;;;;;;;;;;;;;31.84;27.21;98976.84;4377770;32;34081;-86
2022/07/27 06:21:09;;;;;;;;;;;;;;;32.34;27.02;98981.91;4393843;32;33933;-85
2022/07/27 06:23:37;;;;;;;;;;;;;;;31.36;26.57;98981.47;4403972;32;35085;-86
2022/07/27 06:26:04;;;;;;;;;;;;;;;31.34;27.50;98980.75;4403570;32;34551;-86
2022/07/27 06:28:31;;;;;;;;;;;;;;;30.74;27.21;98982.50;4391256;32;34110;-86
2022/07/27 06:30:59;;;;;;;;;;;;;;;31.64;26.58;98975.72;4404806;32;34259;-86
2022/07/27 06:57:31;;;;;;;;;;;;;;;32.85;25.61;98966.13;4802915;26;20259;-93
2022/07/27 06:59:58;;;;;;;;;;;;;;;32.45;26.02;98960.47;4392069;32;34730;-94
2022/07/27 07:02:26;;;;;;;;;;;;;;;33.28;25.30;98965.25;4392481;32;33904;-94
2022/07/27 07:04:54;;;;;;;;;;;;;;;33.48;25.03;98965.41;4393542;32;32751;-93
2022/07/27 07:07:21;;;;;;;;;;;;;;;33.49;23.51;98972.50;4413376;32;34862;-87
2022/07/27 07:09:48;;;;;;;;;;;;;;;33.99;23.95;98965.50;4377284;32;33705;-87
2022/07/27 07:12:17;;;;;;;;;;;;;;;32.08;24.99;98967.88;4390990;32;34270;-92
2022/07/27 07:14:44;;;;;;;;;;;;;;;32.28;24.58;98964.47;4377153;32;34522;-89
2022/07/27 07:17:12;;;;;;;;;;;;;;;32.87;24.60;98966.81;4374876;32;35386;-90
2022/07/27 07:19:39;;;;;;;;;;;;;;;32.68;23.74;98956.75;4390775;32;33673;-91
2022/07/27 07:22:06;;;;;;;;;;;;;;;33.60;23.53;98959.88;4377345;32;34123;-87
2022/07/27 07:24:34;;;;;;;;;;;;;;;32.56;22.69;98956.91;4390930;32;34433;-87
2022/07/27 07:27:01;;;;;;;;;;;;;;;31.97;25.11;98956.19;4391313;32;34625;-88
2022/07/27 07:29:30;;;;;;;;;;;;;;;32.66;23.46;98949.81;4377610;32;34626;-88
2022/07/27 07:31:57;;;;;;;;;;;;;;;32.73;23.19;98945.62;4390267;32;33949;-82
2022/07/27 07:34:26;;;;;;;;;;;;;;;32.63;23.37;98950.91;4391043;32;33902;-86
2022/07/27 07:36:53;;;;;;;;;;;;;;;32.72;24.29;98943.94;4390691;32;34424;-92
2022/07/27 07:39:20;;;;;;;;;;;;;;;32.56;24.46;98946.19;4390569;32;33769;-90
2022/07/27 07:41:47;;;;;;;;;;;;;;;32.38;24.18;98933.22;4375920;32;33581;-90
2022/07/27 07:44:15;;;;;;;;;;;;;;;32.73;23.57;98947.47;4375565;32;34875;-88
2022/07/27 07:46:43;;;;;;;;;;;;;;;33.36;22.49;98952.00;4376015;32;34541;-87
2022/07/27 07:49:13;;;;;;;;;;;;;;;32.50;23.34;98943.97;4376218;32;34100;-88
2022/07/27 07:51:41;;;;;;;;;;;;;;;33.67;22.45;98944.03;4391396;32;34631;-91
2022/07/27 07:54:09;;;;;;;;;;;;;;;32.36;22.74;98939.72;4391691;32;34297;-88
2022/07/27 07:56:36;;;;;;;;;;;;;;;32.50;22.10;98935.94;4376886;32;34755;-91
2022/07/27 07:59:04;;;;;;;;;;;;;;;31.97;23.18;98945.47;4390662;32;32905;-89
2022/07/27 08:01:31;;;;;;;;;;;;;;;32.68;23.60;98929.06;4390417;32;33770;-94
2022/07/27 08:03:58;;;;;;;;;;;;;;;31.69;23.57;98938.69;4390584;32;34477;-89
2022/07/27 08:06:26;;;;;;;;;;;;;;;31.17;23.47;98936.44;4390550;32;34243;-88
2022/07/27 08:08:53;;;;;;;;;;;;;;;31.30;22.85;98939.94;4377127;32;34000;-89
2022/07/27 08:11:20;;;;;;;;;;;;;;;31.05;24.09;98940.91;4390096;32;33685;-88
2022/07/27 08:13:48;;;;;;;;;;;;;;;32.17;22.37;98926.94;4389797;32;34570;-89
2022/07/27 08:16:15;;;;;;;;;;;;;;;32.04;24.04;98934.22;4390437;32;34246;-87
2022/07/27 08:18:43;;;;;;;;;;;;;;;32.32;23.82;98931.06;4376849;32;33116;-88
2022/07/27 08:21:10;;;;;;;;;;;;;;;32.52;22.47;98928.63;4390376;32;34651;-88
2022/07/27 08:23:37;;;;;;;;;;;;;;;33.00;22.16;98930.91;4390249;32;34399;-90
2022/07/27 08:26:05;;;;;;;;;;;;;;;32.43;22.02;98935.59;4390362;32;34328;-87
2022/07/27 08:28:34;;;;;;;;;;;;;;;32.70;22.32;98933.34;4390196;32;32992;-90
2022/07/27 08:31:03;;;;;;;;;;;;;;;32.54;23.05;98932.84;4391862;32;34095;-88
2022/07/27 08:33:41;;;;;;;;;;;;;;;32.90;22.59;98922.78;4391674;32;34358;-90
2022/07/27 08:36:08;;;;;;;;;;;;;;;32.96;22.64;98918.72;4391937;32;34538;-88
2022/07/27 08:38:36;;;;;;;;;;;;;;;33.26;21.98;98924.19;4392029;32;33384;-89
2022/07/27 08:41:03;;;;;;;;;;;;;;;33.77;21.54;98925.28;4391674;32;34179;-88
2022/07/27 08:43:30;;;;;;;;;;;;;;;33.60;20.41;98932.97;4391642;32;34296;-90
2022/07/27 08:45:59;;;;;;;;;;;;;;;32.80;22.20;98911.06;4391911;32;34984;-89
2022/07/27 08:48:28;;;;;;;;;;;;;;;33.52;21.31;98923.84;4378155;32;34041;-90
2022/07/27 08:50:55;;;;;;;;;;;;;;;33.90;21.37;98918.69;4378056;32;35075;-89
2022/07/27 08:53:22;;;;;;;;;;;;;;;31.93;24.07;98927.88;4391857;32;35169;-90
2022/07/27 08:55:50;;;;;;;;;;;;;;;33.02;22.05;98920.91;4391746;32;35251;-89
2022/07/27 08:58:17;;;;;;;;;;;;;;;33.89;21.83;98919.66;4391613;32;33336;-87
2022/07/27 09:00:45;;;;;;;;;;;;;;;33.89;21.70;98921.50;4391444;32;33737;-90
2022/07/27 09:03:13;;;;;;;;;;;;;;;33.28;20.90;98916.03;4391728;32;34348;-90
2022/07/27 09:05:53;;;;;;;;;;;;;;;32.53;20.45;98907.00;4392029;32;33717;-87
2022/07/27 09:08:22;;;;;;;;;;;;;;;32.73;21.73;98915.25;4391859;32;33662;-87
2022/07/27 09:10:51;;;;;;;;;;;;;;;31.39;21.87;98922.31;4378370;32;34322;-90
2022/07/27 09:13:18;;;;;;;;;;;;;;;31.97;23.06;98912.41;4378352;32;33986;-87
2022/07/27 09:15:56;;;;;;;;;;;;;;;32.32;21.81;98917.66;4391788;32;35174;-86
2022/07/27 09:18:44;;;;;;;;;;;;;;;33.15;21.34;98914.41;4365785;32;33223;-87
2022/07/27 09:21:13;;;;;;;;;;;;;;;33.58;20.26;98923.34;4363447;32;34058;-87
2022/07/27 09:23:42;;;;;;;;;;;;;;;33.63;20.12;98921.09;4376725;32;34017;-89
2022/07/27 09:26:11;;;;;;;;;;;;;;;34.23;19.60;98913.19;4376395;32;35028;-87
2022/07/27 09:28:58;;;;;;;;;;;;;;;34.68;19.04;98912.75;4379439;32;33021;-86
2022/07/27 09:31:25;;;;;;;;;;;;;;;34.01;19.47;98914.25;4377827;32;34002;-87
2022/07/27 09:33:53;;;;;;;;;;;;;;;34.48;19.04;98906.47;4391666;32;34355;-87
2022/07/27 09:36:21;;;;;;;;;;;;;;;34.03;18.94;98912.28;4391366;32;34329;-88
2022/07/27 09:38:52;;;;;;;;;;;;;;;33.69;19.42;98914.34;4377893;32;33357;-86
2022/07/27 09:41:26;;;;;;;;;;;;;;;32.59;20.36;98919.09;4390453;32;34470;-89
2022/07/27 09:43:54;;;;;;;;;;;;;;;33.31;20.51;98907.72;4391744;32;32783;-92
2022/07/27 09:46:42;;;;;;;;;;;;;;;32.89;20.43;98903.13;4391447;32;33880;-89
2022/07/27 09:49:25;;;;;;;;;;;;;;;32.50;20.89;98909.09;4391525;32;33137;-86
2022/07/27 09:51:55;;;;;;;;;;;;;;;32.32;20.16;98900.69;4376366;32;34017;-88
2022/07/27 09:54:26;;;;;;;;;;;;;;;32.92;19.90;98905.56;4389479;32;34402;-87
2022/07/27 09:56:57;;;;;;;;;;;;;;;33.88;18.91;98912.59;4365156;32;34794;-88
2022/07/27 09:59:25;;;;;;;;;;;;;;;33.88;19.19;98931.44;4391049;32;34397;-89
2022/07/27 10:01:54;;;;;;;;;;;;;;;33.06;19.88;98914.31;4391454;32;34300;-89
2022/07/27 10:04:22;;;;;;;;;;;;;;;34.56;18.90;98904.81;4377918;32;34111;-89
2022/07/27 10:06:49;;;;;;;;;;;;;;;34.74;18.25;98907.66;4391342;32;35210;-89
2022/07/27 10:09:31;;;;;;;;;;;;;;;35.00;18.36;98905.28;4376944;32;33163;-88
2022/07/27 10:11:58;;;;;;;;;;;;;;;35.37;17.94;98901.00;4391361;32;34612;-87
2022/07/27 10:14:25;;;;;;;;;;;;;;;34.75;18.28;98906.69;4391037;32;34028;-87
2022/07/27 10:16:53;;;;;;;;;;;;;;;35.63;18.14;98902.09;4391239;32;34178;-87
2022/07/27 10:19:39;;;;;;;;;;;;;;;34.41;18.00;98910.69;4377093;32;33331;-89
2022/07/27 10:22:06;;;;;;;;;;;;;;;34.06;19.14;98898.56;4390390;32;33761;-89
2022/07/27 10:24:35;;;;;;;;;;;;;;;34.49;19.48;98902.78;4391121;32;35196;-88
2022/07/27 10:27:18;;;;;;;;;;;;;;;34.75;17.99;98898.59;4391538;32;34467;-88
2022/07/27 10:29:49;;;;;;;;;;;;;;;33.60;18.62;98908.78;4391350;32;33137;-89
2022/07/27 10:32:30;;;;;;;;;;;;;;;34.66;18.71;98888.66;4390940;32;34291;-91
2022/07/27 10:34:58;;;;;;;;;;;;;;;35.57;19.00;98895.47;4377587;32;34491;-87
2022/07/27 10:37:29;;;;;;;;;;;;;;;36.28;16.81;98888.66;4368321;32;34218;-87
2022/07/27 10:42:45;;;;;;;;;;;;;;;35.31;16.93;98895.19;4379323;32;34968;-88
2022/07/27 10:45:20;;;;;;;;;;;;;;;34.37;18.98;98889.44;4390921;32;34654;-88
2022/07/27 10:47:51;;;;;;;;;;;;;;;34.23;19.11;98883.59;4391016;32;35685;-88
2022/07/27 10:50:20;;;;;;;;;;;;;;;34.20;18.14;98886.56;4377335;32;33669;-86
2022/07/27 10:52:51;;;;;;;;;;;;;;;34.24;17.98;98885.28;4390016;32;33946;-91
2022/07/27 10:55:31;;;;;;;;;;;;;;;35.17;19.28;98887.56;4381299;32;33934;-89
2022/07/27 10:58:02;;;;;;;;;;;;;;;34.65;17.87;98880.72;4390811;32;34112;-87
2022/07/27 11:00:47;;;;;;;;;;;;;;;34.88;17.88;98875.91;4390771;32;33581;-88
2022/07/27 11:03:21;;;;;;;;;;;;;;;33.85;18.19;98883.28;4381864;32;34205;-88
2022/07/27 11:05:57;;;;;;;;;;;;;;;34.68;17.64;98881.28;4391018;32;35775;-87
2022/07/27 11:08:45;;;;;;;;;;;;;;;34.76;18.51;98876.06;4390527;32;34700;-86
2022/07/27 11:11:15;;;;;;;;;;;;;;;35.44;17.67;98864.38;4391056;32;34622;-87
2022/07/27 11:13:42;;;;;;;;;;;;;;;34.85;18.40;98872.53;4390426;32;34005;-88
2022/07/27 11:16:11;;;;;;;;;;;;;;;34.57;18.18;98863.41;4377304;32;34128;-86
2022/07/27 11:18:55;;;;;;;;;;;;;;;34.18;18.20;98859.78;4378582;32;34611;-87
2022/07/27 11:21:23;;;;;;;;;;;;;;;33.54;19.05;98870.84;4365675;32;33416;-86
2022/07/27 11:23:53;;;;;;;;;;;;;;;33.92;18.32;98862.09;4389641;32;33876;-87
2022/07/27 11:26:22;;;;;;;;;;;;;;;34.48;18.46;98855.31;4390534;32;34074;-87
2022/07/27 11:28:50;;;;;;;;;;;;;;;33.74;18.70;98856.47;4390456;32;34369;-87
2022/07/27 11:31:17;;;;;;;;;;;;;;;34.28;18.95;98852.56;4376940;32;34205;-87
2022/07/27 11:34:05;;;;;;;;;;;;;;;33.66;18.38;98862.53;4376017;32;34995;-87
2022/07/27 11:36:35;;;;;;;;;;;;;;;35.30;18.21;98849.50;4390660;32;34332;-88
2022/07/27 11:39:03;;;;;;;;;;;;;;;33.95;17.82;98855.59;4390413;32;34207;-88
2022/07/27 11:41:31;;;;;;;;;;;;;;;33.90;18.61;98854.12;4390802;32;33277;-88
2022/07/27 11:44:19;;;;;;;;;;;;;;;34.98;18.27;98852.53;4378602;32;32619;-87
2022/07/27 11:46:49;;;;;;;;;;;;;;;35.62;16.38;98849.19;4390186;32;34530;-88
2022/07/27 11:49:17;;;;;;;;;;;;;;;35.93;16.62;98846.22;4376852;32;35327;-88
2022/07/27 11:51:45;;;;;;;;;;;;;;;35.68;16.07;98842.31;4362424;32;33909;-85
2022/07/27 11:54:45;;;;;;;;;;;;;;;36.17;16.56;98837.56;4376886;32;34367;-89
2022/07/27 11:57:17;;;;;;;;;;;;;;;35.80;16.38;98847.41;4364952;32;34038;-86
2022/07/27 11:59:45;;;;;;;;;;;;;;;34.39;17.36;98848.91;4363121;32;880413;-88
2022/07/27 12:02:16;;;;;;;;;;;;;;;34.69;17.31;98839.91;4381723;32;34364;-86
2022/07/27 12:04:48;;;;;;;;;;;;;;;34.02;17.95;98846.00;4376581;32;34231;-88
2022/07/27 12:07:20;;;;;;;;;;;;;;;34.37;17.25;98838.31;4390315;32;34135;-88
2022/07/27 12:09:49;;;;;;;;;;;;;;;34.76;17.87;98835.66;4390490;32;34754;-87
2022/07/27 12:12:21;;;;;;;;;;;;;;;35.21;17.20;98834.22;4390708;32;33651;-87
2022/07/27 12:14:56;;;;;;;;;;;;;;;35.49;16.41;98833.31;4376912;32;34948;-87
2022/07/27 12:17:28;;;;;;;;;;;;;;;34.58;17.95;98838.19;4376873;32;34089;-89
2022/07/27 12:20:23;;;;;;;;;;;;;;;35.01;17.99;98833.41;4376384;32;34175;-88
2022/07/27 12:22:51;;;;;;;;;;;;;;;34.70;17.12;98835.37;4389299;32;33113;-89
2022/07/27 12:25:20;;;;;;;;;;;;;;;35.32;17.26;98820.59;4390178;32;33994;-86
2022/07/27 12:28:00;;;;;;;;;;;;;;;35.60;16.80;98824.19;4390235;32;34343;-87
2022/07/27 12:30:32;;;;;;;;;;;;;;;36.11;16.09;98824.72;4376399;32;34218;-87
2022/07/27 12:33:00;;;;;;;;;;;;;;;36.57;16.52;98817.44;4376812;32;33460;-88
2022/07/27 12:35:28;;;;;;;;;;;;;;;35.54;16.78;98814.03;4390488;32;33634;-87
2022/07/27 12:38:03;;;;;;;;;;;;;;;36.19;16.17;98814.00;4390090;32;35407;-87
2022/07/27 12:40:31;;;;;;;;;;;;;;;36.04;16.95;98816.34;4376374;32;34597;-86
2022/07/27 12:43:02;;;;;;;;;;;;;;;37.07;15.57;98812.31;4376220;32;34308;-87
2022/07/27 12:45:34;;;;;;;;;;;;;;;36.86;16.84;98815.34;4376432;32;33700;-87
2022/07/27 12:48:08;;;;;;;;;;;;;;;37.20;16.61;98803.78;4376638;32;33926;-85
2022/07/27 12:50:35;;;;;;;;;;;;;;;37.34;14.82;98803.19;4390201;32;35370;-86
2022/07/27 12:53:03;;;;;;;;;;;;;;;37.60;14.96;98794.25;4390021;32;33270;-87
2022/07/27 12:55:30;;;;;;;;;;;;;;;36.56;14.84;98800.41;4389936;32;33900;-87
2022/07/27 12:57:57;;;;;;;;;;;;;;;37.09;14.90;98801.34;4389407;32;35143;-87
2022/07/27 13:00:28;;;;;;;;;;;;;;;37.03;15.07;98802.81;4389867;32;34748;-87
2022/07/27 13:03:00;;;;;;;;;;;;;;;36.93;15.12;98797.47;4377061;32;33687;-86
2022/07/27 13:05:28;;;;;;;;;;;;;;;35.74;16.48;98799.44;4389912;32;34267;-88
2022/07/27 13:07:55;;;;;;;;;;;;;;;36.78;16.32;98793.66;4389612;32;34146;-88
2022/07/27 13:10:23;;;;;;;;;;;;;;;35.41;16.02;98784.66;4369900;32;34033;-87
2022/07/27 13:12:50;;;;;;;;;;;;;;;36.93;15.25;98785.81;4389691;32;34209;-91
2022/07/27 13:15:17;;;;;;;;;;;;;;;37.06;15.63;98789.00;4390086;32;33952;-88
2022/07/27 13:17:46;;;;;;;;;;;;;;;35.35;16.90;98790.66;4377794;32;34180;-86
2022/07/27 13:20:14;;;;;;;;;;;;;;;36.54;17.10;98786.19;4391840;32;35369;-87
2022/07/27 13:22:42;;;;;;;;;;;;;;;36.42;17.12;98788.25;4377840;32;32745;-86
2022/07/27 13:25:11;;;;;;;;;;;;;;;36.61;15.89;98786.44;4378045;32;33537;-88
2022/07/27 13:27:45;;;;;;;;;;;;;;;36.60;15.90;98779.34;4391730;32;34397;-86
2022/07/27 13:30:14;;;;;;;;;;;;;;;36.83;16.46;98790.50;4378266;32;34440;-87